Aeroporto :
LOGIN :

Iscrizione | Disclaimer

   EN    FR    IT 

 










Sommario :    VFR   VFR Marginale   IFR   IFR Intensivo   IFR Molto Intensivo
Visibilità : 
Base nubi : 
>= 8 km
>= 3000ft
5 / 8 km
1000 / 3000 ft
1500m / 5 km
500 / 1000 ft
800 / 1500m
200 / 500 ft
< 800m
< 200 ft
Simboli :   Temporali  Nebbia  Neve Forte  Precipitazioni Forti  Vento > 20 kt
SIGMETs :   Varie  Temporali  Ghiacco  Turbolenza  Onda orograficha  Ceneri Vulcaniche






- Altitudine del aeroporto : 140 ft
- Codice IATA : NYO


ESKN - Skavsta

ULTIMO METAR :
  • 071020Z 27024KT 9999 SCT041 14/03 Q1018

METARs OBSOLETI :
  • 070950Z 27020KT 9999 SCT033 13/04 Q1018
  • 070920Z 27016KT 9999 FEW045 13/06 Q1018
  • 070850Z 25014KT CAVOK 10/06 Q1018
  • 070820Z 24011KT 9999 FEW041 SCT086 08/05 Q1018
  • 070750Z 26013KT 9999 -RA FEW015 BKN068 08/04 Q1018

TAF TAF ESKN
Valido dal 07 a 06 ore il 08 a 06 ore UTC


070530Z 0706/0806 VRB02KT CAVOK
TEMPO 0707/0711 5000 RA BKN014 BKN030CB
BECMG 0708/0710 27012KT
BECMG 0710/0712 31015G28KT
BECMG 0715/0717 27005KT



MetMap, La meteo Aeronautica in un colpo d'occhio ! - Copyright ORBIFLY Dicembre 2007 - Disclaimer

ORBIFLY MET'MAP TEAM :

Programmazione e sviluppo : Alexandra Zaïnal
Concezione : Baudouin d'Aumeries
Aiuto per la programmazione : Marc-Olivier Méhu
Supporto tecnico e logistico : Manuel Goepfert
Aiuto per la traduzione : Arnaldo La Scala

Contatto : metmap@orbifly.com




FONTI E CREDITI :

   NOAA